Main page
METAR-TAF:

METAR-TAF

Airports :

Hobart Regional Airport

Hobart, Oklahoma, United States

latitude: 34-59-22N, longitude: 099-03-09W, elevation: 1561 ft

Current weather observation

The report was made 1 hour and 4 minutes ago, at 15:53 UTC
Wind 16 mph from the South/Southwest
Temperature 82°F
Humidity 66%
Pressure 29.95 in. Hg
Visibility: 10 miles
Clear sky

METAR: KHBR 151553Z AUTO 21014KT 10SM CLR 28/21 A2995 RMK AO2 SLP122 T02830206

Time: 11:57 (16:57 UTC)


TAF: missing

Weather observations and forecasts of more than 4000 airports (METAR and TAF reports).

The available stations are represented by yellow and red dots on the map.

Hover mouse over dot to see the name of the station.

Then click to see weather observations and forecasts.

To change the map : click on the green buttons with a black cross to zoom in, on the green button with a dash to zoom out, or on the green arrows for adjacent maps.


METAR-TAF: